Time;durP1;ratioP1;P1;durP2;ratioP2;P2;SDS_P1;SDS_P2;PMS_P1;PMS_P2;Temp;Humidity;BMP_temperature;BMP_pressure;BME280_temperature;BME280_humidity;BME280_pressure;Samples;Min_cycle;Max_cycle;Signal;HPM_P1;HPM_P2
2024/01/02 00:00:18;;;;;;;7.90;2.30;;;;;;;4.94;59.76;100264.78;4998365;28;98138;-52
2024/01/02 00:02:43;;;;;;;6.40;2.30;;;;;;;4.92;59.62;100253.53;4992074;28;96958;-52
2024/01/02 00:05:09;;;;;;;3.80;2.00;;;;;;;4.90;59.49;100247.03;4995469;28;96642;-52
2024/01/02 00:07:34;;;;;;;5.90;1.93;;;;;;;4.86;59.52;100241.78;4990955;28;99448;-52
2024/01/02 00:10:00;;;;;;;6.50;1.80;;;;;;;4.86;59.78;100238.28;4995679;28;98578;-52
2024/01/02 00:12:25;;;;;;;5.80;1.90;;;;;;;4.83;59.58;100248.25;4993933;28;96978;-52
2024/01/02 00:14:52;;;;;;;5.07;2.00;;;;;;;4.80;59.63;100228.03;4991983;28;97389;-52
2024/01/02 00:17:18;;;;;;;4.30;1.63;;;;;;;4.77;59.84;100228.25;4994873;28;98324;-52
2024/01/02 00:19:43;;;;;;;4.73;1.80;;;;;;;4.76;59.74;100226.75;4994405;28;97321;-52
2024/01/02 00:22:08;;;;;;;3.50;2.00;;;;;;;4.73;59.76;100225.69;4993305;28;97358;-52
2024/01/02 00:24:34;;;;;;;6.47;1.80;;;;;;;4.71;59.99;100228.19;4990500;28;97174;-52
2024/01/02 00:26:59;;;;;;;3.33;1.90;;;;;;;4.68;59.86;100228.41;4998605;28;98327;-52
2024/01/02 00:29:25;;;;;;;7.57;2.50;;;;;;;4.66;59.96;100223.44;4991475;28;96706;-52
2024/01/02 00:31:50;;;;;;;5.53;2.37;;;;;;;4.65;59.76;100213.69;4999902;28;97099;-52
2024/01/02 00:34:15;;;;;;;4.70;2.30;;;;;;;4.64;59.86;100208.69;4996661;28;99589;-52
2024/01/02 00:36:41;;;;;;;6.43;2.37;;;;;;;4.61;59.95;100201.44;5014457;28;97592;-52
2024/01/02 00:39:06;;;;;;;8.37;2.67;;;;;;;4.58;60.02;100205.19;4994185;28;98127;-52
2024/01/02 00:41:33;;;;;;;13.93;2.10;;;;;;;4.56;60.02;100196.69;4996265;28;96984;-52
2024/01/02 00:43:58;;;;;;;8.10;2.67;;;;;;;4.56;60.26;100199.44;4996947;28;97034;-52
2024/01/02 00:46:23;;;;;;;9.83;2.23;;;;;;;4.55;60.07;100201.41;4996354;28;97146;-52
2024/01/02 00:48:49;;;;;;;4.63;2.17;;;;;;;4.56;60.10;100196.69;4997817;28;96710;-52
2024/01/02 00:51:14;;;;;;;7.10;2.53;;;;;;;4.56;60.20;100200.16;4995597;28;97914;-52
2024/01/02 00:53:40;;;;;;;7.50;2.17;;;;;;;4.56;59.99;100185.72;4997095;28;96718;-52
2024/01/02 00:56:05;;;;;;;6.00;2.00;;;;;;;4.54;60.08;100185.44;4995941;28;97339;-52
2024/01/02 00:58:31;;;;;;;9.00;2.60;;;;;;;4.51;60.24;100176.22;4997694;28;98794;-52
2024/01/02 01:00:56;;;;;;;6.50;2.37;;;;;;;4.51;60.00;100173.50;4993643;28;97290;-52
2024/01/02 01:03:21;;;;;;;4.30;1.93;;;;;;;4.49;60.18;100172.47;4997385;28;96960;-52
2024/01/02 01:05:47;;;;;;;6.00;2.70;;;;;;;4.49;60.24;100164.25;4997340;28;98875;-52
2024/01/02 01:08:12;;;;;;;7.00;2.13;;;;;;;4.45;60.22;100152.78;4996398;28;97563;-52
2024/01/02 01:10:38;;;;;;;6.10;1.80;;;;;;;4.46;60.26;100154.25;4990665;28;97034;-52
2024/01/02 01:13:03;;;;;;;6.47;2.03;;;;;;;4.44;60.14;100164.94;4997198;28;97053;-53
2024/01/02 01:15:28;;;;;;;4.40;1.70;;;;;;;4.43;60.20;100149.78;4992206;28;99309;-52
2024/01/02 01:17:54;;;;;;;6.33;2.20;;;;;;;4.42;60.26;100146.28;4991490;28;97300;-52
2024/01/02 01:20:19;;;;;;;4.67;2.20;;;;;;;4.43;60.22;100147.03;4993067;28;96773;-52
2024/01/02 01:22:44;;;;;;;6.97;2.03;;;;;;;4.43;60.37;100144.28;4993197;28;97287;-52
2024/01/02 01:25:10;;;;;;;7.77;2.37;;;;;;;4.43;60.28;100144.28;4992892;28;97490;-52
2024/01/02 01:27:35;;;;;;;3.73;2.40;;;;;;;4.46;60.45;100143.31;4993298;28;97408;-52
2024/01/02 01:30:01;;;;;;;7.60;2.80;;;;;;;4.45;60.31;100139.81;4994674;28;97067;-52
2024/01/02 01:32:28;;;;;;;12.43;1.93;;;;;;;4.45;60.53;100139.81;4996737;28;97205;-52
2024/01/02 01:34:53;;;;;;;7.23;1.90;;;;;;;4.45;60.26;100134.31;4994222;28;98868;-52
2024/01/02 01:37:19;;;;;;;5.43;2.10;;;;;;;4.46;60.41;100130.38;4994137;28;97262;-52
2024/01/02 01:39:44;;;;;;;7.57;2.00;;;;;;;4.46;60.56;100118.66;4993525;28;97254;-52
2024/01/02 01:42:10;;;;;;;4.77;1.77;;;;;;;4.44;60.52;100121.13;5011921;28;97442;-53
2024/01/02 01:44:35;;;;;;;5.20;1.67;;;;;;;4.42;60.48;100109.91;4996049;28;98735;-52
2024/01/02 01:47:03;;;;;;;7.80;1.73;;;;;;;4.42;60.50;100116.16;4998497;28;97072;-52
2024/01/02 01:49:30;;;;;;;3.57;1.67;;;;;;;4.41;60.51;100102.94;4995237;28;97043;-52
2024/01/02 01:51:56;;;;;;;7.00;2.23;;;;;;;4.40;60.55;100104.19;4993155;28;97351;-52
2024/01/02 01:54:22;;;;;;;3.80;1.70;;;;;;;4.41;60.62;100089.22;4993642;28;97790;-52
2024/01/02 01:56:48;;;;;;;3.37;1.70;;;;;;;4.40;60.52;100085.00;4994632;28;97224;-52
2024/01/02 01:59:14;;;;;;;3.10;1.60;;;;;;;4.40;60.85;100087.75;4993522;28;97298;-52
2024/01/02 02:01:42;;;;;;;4.00;1.70;;;;;;;4.42;60.93;100072.31;4993369;28;97300;-52
2024/01/02 02:04:07;;;;;;;3.87;1.80;;;;;;;4.45;60.85;100070.59;4995324;28;98623;-52
2024/01/02 02:06:33;;;;;;;8.93;2.10;;;;;;;4.47;60.81;100068.13;4995742;28;97146;-52
2024/01/02 02:08:58;;;;;;;5.33;2.03;;;;;;;4.46;60.57;100061.91;4995653;28;96612;-52
2024/01/02 02:11:25;;;;;;;10.03;2.50;;;;;;;4.44;60.81;100058.16;4990792;28;97079;-52
2024/01/02 02:13:51;;;;;;;2.20;1.30;;;;;;;4.48;60.75;100056.69;4994809;28;97097;-52
2024/01/02 02:16:16;;;;;;;12.10;1.80;;;;;;;4.50;60.85;100048.72;4995948;28;97847;-52
2024/01/02 02:18:42;;;;;;;2.50;1.63;;;;;;;4.53;61.00;100049.75;4991058;28;96796;-52
2024/01/02 02:21:08;;;;;;;2.27;1.20;;;;;;;4.52;61.04;100040.00;4995848;28;97164;-52
2024/01/02 02:23:33;;;;;;;5.60;1.60;;;;;;;4.51;61.16;100038.53;4995311;28;99158;-52
2024/01/02 02:25:59;;;;;;;5.53;1.70;;;;;;;4.51;61.12;100030.31;4995556;28;97529;-52
2024/01/02 02:28:24;;;;;;;3.60;1.80;;;;;;;4.51;61.14;100013.88;5000893;28;97111;-52
2024/01/02 02:30:50;;;;;;;5.43;1.40;;;;;;;4.52;60.83;100009.88;4994354;28;96769;-52
2024/01/02 02:33:15;;;;;;;4.70;1.47;;;;;;;4.51;61.16;100000.19;4995561;28;99981;-52
2024/01/02 02:35:40;;;;;;;3.33;1.47;;;;;;;4.54;61.10;100005.41;4994621;28;96778;-52
2024/01/02 02:38:06;;;;;;;3.83;1.50;;;;;;;4.56;61.13;99994.72;4992251;28;97323;-52
2024/01/02 02:40:31;;;;;;;4.17;1.60;;;;;;;4.58;61.21;99988.75;4992304;28;96864;-52
2024/01/02 02:42:57;;;;;;;5.70;1.90;;;;;;;4.59;61.13;99987.50;4990848;28;96738;-52
2024/01/02 02:45:22;;;;;;;11.37;1.70;;;;;;;4.62;61.32;99979.06;4991750;28;102417;-52
2024/01/02 02:47:47;;;;;;;6.40;1.80;;;;;;;4.65;61.24;99967.13;4992319;28;97425;-52
2024/01/02 02:50:13;;;;;;;5.73;1.80;;;;;;;4.66;61.24;99960.41;4991185;28;98423;-52
2024/01/02 02:52:38;;;;;;;7.50;1.30;;;;;;;4.68;61.31;99949.72;4994010;28;97140;-52
2024/01/02 02:55:04;;;;;;;4.10;1.20;;;;;;;4.71;61.35;99956.19;5000765;28;96924;-52
2024/01/02 02:57:29;;;;;;;2.40;1.37;;;;;;;4.72;61.25;99933.03;4994992;28;96793;-52
2024/01/02 02:59:55;;;;;;;11.47;1.80;;;;;;;4.74;61.21;99936.78;4996713;28;97251;-52
2024/01/02 03:02:20;;;;;;;6.10;1.33;;;;;;;4.75;61.21;99929.31;4999158;28;99341;-52
2024/01/02 03:04:46;;;;;;;9.57;1.93;;;;;;;4.77;61.17;99922.13;4993771;28;97157;-52
2024/01/02 03:07:11;;;;;;;2.73;1.50;;;;;;;4.74;61.24;99923.06;5000710;28;97184;-52
2024/01/02 03:09:37;;;;;;;2.33;1.00;;;;;;;4.72;61.25;99913.84;4991746;28;97220;-52
2024/01/02 03:12:04;;;;;;;7.53;1.43;;;;;;;4.75;61.16;99918.34;4977388;28;97250;-52
2024/01/02 03:14:29;;;;;;;2.40;1.07;;;;;;;4.78;61.33;99909.16;4990865;28;97171;-52
2024/01/02 03:16:55;;;;;;;5.67;1.53;;;;;;;4.81;61.46;99899.94;4995441;28;96903;-52
2024/01/02 03:19:20;;;;;;;5.70;1.40;;;;;;;4.84;61.24;99903.69;4992231;28;97192;-52
2024/01/02 03:21:45;;;;;;;7.30;1.37;;;;;;;4.85;61.40;99897.72;4997646;28;97115;-52
2024/01/02 03:24:11;;;;;;;5.00;1.53;;;;;;;4.87;61.41;99902.69;4997951;28;97089;-52
2024/01/02 03:26:36;;;;;;;9.30;1.47;;;;;;;4.89;61.43;99900.22;4990732;28;97161;-52
2024/01/02 03:29:01;;;;;;;2.53;1.20;;;;;;;4.93;61.37;99878.81;4995136;28;97109;-52
2024/01/02 03:31:27;;;;;;;6.97;1.40;;;;;;;4.93;61.47;99882.28;4994700;28;96892;-52
2024/01/02 03:33:52;;;;;;;5.67;1.27;;;;;;;4.92;61.47;99858.88;4993876;28;109665;-52
2024/01/02 03:36:21;;;;;;;5.33;1.20;;;;;;;4.95;61.45;99855.16;4993435;28;97318;-52
2024/01/02 03:38:48;;;;;;;3.87;1.30;;;;;;;4.99;61.43;99844.69;4992977;28;96953;-52
2024/01/02 03:41:13;;;;;;;8.60;1.63;;;;;;;4.99;61.37;99836.47;4994506;28;97213;-52
2024/01/02 03:43:39;;;;;;;3.07;1.10;;;;;;;5.04;61.51;99840.44;4995142;28;97093;-52
2024/01/02 03:46:05;;;;;;;1.63;1.17;;;;;;;5.07;61.42;99831.97;4991718;28;97314;-52
2024/01/02 03:48:30;;;;;;;3.23;1.17;;;;;;;5.07;61.62;99820.25;4991197;28;96985;-52
2024/01/02 03:50:56;;;;;;;4.77;1.00;;;;;;;5.12;61.72;99814.78;4993409;28;102634;-52
2024/01/02 03:53:21;;;;;;;2.60;0.90;;;;;;;5.16;61.51;99806.28;4992492;28;97098;-52
2024/01/02 03:55:46;;;;;;;4.77;1.13;;;;;;;5.16;61.52;99800.81;4995700;28;97164;-52
2024/01/02 03:58:12;;;;;;;3.50;1.30;;;;;;;5.18;61.58;99803.81;4995060;28;97232;-52
2024/01/02 04:00:38;;;;;;;5.90;1.10;;;;;;;5.23;61.41;99794.84;4991657;28;97062;-52
2024/01/02 04:03:03;;;;;;;3.30;1.30;;;;;;;5.23;61.53;99783.88;4993043;28;97082;-52
2024/01/02 04:05:29;;;;;;;6.40;1.33;;;;;;;5.24;61.63;99777.88;4993017;28;96782;-52
2024/01/02 04:07:54;;;;;;;3.43;1.30;;;;;;;5.27;61.75;99773.38;4993586;28;97188;-52
2024/01/02 04:10:20;;;;;;;3.53;1.37;;;;;;;5.29;61.52;99771.63;5003499;28;99333;-52
2024/01/02 04:12:45;;;;;;;8.83;1.47;;;;;;;5.30;61.75;99759.41;4995907;28;96950;-52
2024/01/02 04:15:10;;;;;;;4.83;1.70;;;;;;;5.30;61.65;99764.16;4997884;28;97052;-52
2024/01/02 04:17:36;;;;;;;4.37;1.60;;;;;;;5.32;61.81;99745.94;4999975;28;96961;-52
2024/01/02 04:20:01;;;;;;;5.60;1.40;;;;;;;5.33;61.83;99749.44;4995358;28;99290;-53
2024/01/02 04:22:26;;;;;;;4.93;1.37;;;;;;;5.35;61.88;99733.97;4993249;28;99995;-52
2024/01/02 04:24:52;;;;;;;3.00;1.13;;;;;;;5.36;61.77;99719.03;5003760;28;97626;-53
2024/01/02 04:27:17;;;;;;;3.23;1.30;;;;;;;5.35;61.80;99720.25;4995273;28;97305;-52
2024/01/02 04:29:42;;;;;;;4.57;1.10;;;;;;;5.35;61.88;99716.78;4991523;28;99437;-52
2024/01/02 04:32:08;;;;;;;8.70;1.27;;;;;;;5.38;62.10;99710.28;4995821;27;96701;-52
2024/01/02 04:34:33;;;;;;;2.97;1.10;;;;;;;5.40;61.97;99713.28;4996805;28;97280;-52
2024/01/02 04:36:59;;;;;;;4.10;1.17;;;;;;;5.43;61.93;99706.78;4996142;28;97215;-52
2024/01/02 04:39:24;;;;;;;5.50;1.30;;;;;;;5.43;61.95;99710.25;4995995;28;98585;-52
2024/01/02 04:41:50;;;;;;;4.30;1.40;;;;;;;5.47;62.13;99699.03;4997688;28;97202;-52
2024/01/02 04:44:15;;;;;;;12.60;1.50;;;;;;;5.47;62.09;99688.06;4996497;28;96994;-53
2024/01/02 04:46:41;;;;;;;6.80;0.97;;;;;;;5.47;62.05;99686.09;4996327;28;97114;-52
2024/01/02 04:49:06;;;;;;;5.27;1.03;;;;;;;5.45;62.11;99674.13;4993765;28;98263;-52
2024/01/02 04:51:32;;;;;;;5.97;1.50;;;;;;;5.46;62.08;99676.34;4995433;28;98356;-52
2024/01/02 04:53:57;;;;;;;8.33;1.70;;;;;;;5.46;62.43;99672.84;4997161;28;97014;-52
2024/01/02 04:56:23;;;;;;;7.43;1.10;;;;;;;5.48;62.33;99665.63;4998611;28;96983;-52
2024/01/02 04:58:48;;;;;;;7.47;1.73;;;;;;;5.49;62.42;99647.16;4995171;28;101830;-52
2024/01/02 05:01:14;;;;;;;7.60;1.70;;;;;;;5.47;62.56;99636.72;4997312;28;96720;-52
2024/01/02 05:03:40;;;;;;;10.70;1.67;;;;;;;5.49;62.63;99631.47;4993442;28;97220;-52
2024/01/02 05:06:05;;;;;;;5.27;1.30;;;;;;;5.49;62.40;99631.47;4995618;28;97222;-52
2024/01/02 05:08:30;;;;;;;2.80;0.90;;;;;;;5.50;62.49;99627.44;4996514;28;98449;-52
2024/01/02 05:10:56;;;;;;;5.57;1.53;;;;;;;5.52;62.92;99618.72;4995084;28;97669;-53
2024/01/02 05:13:21;;;;;;;8.53;1.40;;;;;;;5.52;62.80;99611.22;4995566;28;96557;-53
2024/01/02 05:15:46;;;;;;;4.77;1.10;;;;;;;5.55;62.96;99610.22;4995193;28;96960;-53
2024/01/02 05:18:11;;;;;;;7.80;1.50;;;;;;;5.57;62.86;99602.22;4994274;28;99158;-53
2024/01/02 05:20:37;;;;;;;6.47;1.50;;;;;;;5.59;62.78;99587.28;4993533;28;99547;-53
2024/01/02 05:23:04;;;;;;;3.10;1.23;;;;;;;5.58;63.02;99586.53;4996107;28;96947;-53
2024/01/02 05:25:31;;;;;;;11.47;1.73;;;;;;;5.57;62.90;99583.03;4998073;28;96990;-53
2024/01/02 05:27:57;;;;;;;6.53;1.33;;;;;;;5.60;63.07;99578.53;4996426;28;96825;-53
2024/01/02 05:30:22;;;;;;;2.73;1.03;;;;;;;5.61;62.98;99588.25;5001071;28;99538;-53
2024/01/02 05:32:47;;;;;;;6.57;1.10;;;;;;;5.61;63.06;99573.78;4998162;28;96695;-53
2024/01/02 05:35:13;;;;;;;3.60;1.50;;;;;;;5.59;63.17;99570.81;4996501;28;97007;-53
2024/01/02 05:37:38;;;;;;;3.83;1.10;;;;;;;5.63;63.18;99574.03;4997989;28;97068;-53
2024/01/02 05:40:04;;;;;;;8.63;1.30;;;;;;;5.63;63.40;99572.00;4998600;28;97366;-53
2024/01/02 05:42:29;;;;;;;3.47;1.10;;;;;;;5.66;63.32;99562.78;4993788;28;97082;-54
2024/01/02 05:44:55;;;;;;;2.87;1.20;;;;;;;5.67;63.41;99556.03;4994036;28;96991;-53
2024/01/02 05:47:20;;;;;;;6.37;0.80;;;;;;;5.69;63.41;99548.06;4994660;28;98818;-54
2024/01/02 05:49:46;;;;;;;10.63;1.60;;;;;;;5.70;63.37;99555.00;4993539;28;99040;-54
2024/01/02 05:52:11;;;;;;;4.27;1.10;;;;;;;5.71;63.38;99555.75;4994723;28;96814;-54
2024/01/02 05:54:36;;;;;;;5.00;0.97;;;;;;;5.72;63.30;99533.28;4992326;28;97032;-53
2024/01/02 05:57:02;;;;;;;4.13;1.13;;;;;;;5.71;63.51;99525.56;4993464;28;97982;-54
2024/01/02 05:59:28;;;;;;;4.30;1.30;;;;;;;5.71;63.63;99522.84;4985818;28;98587;-54
2024/01/02 06:01:53;;;;;;;1.60;0.70;;;;;;;5.71;63.52;99529.06;4995964;28;97550;-54
2024/01/02 06:04:18;;;;;;;3.70;1.07;;;;;;;5.72;63.74;99516.84;4996802;28;97314;-54
2024/01/02 06:06:44;;;;;;;6.83;1.10;;;;;;;5.74;63.83;99511.56;4994928;28;106360;-53
2024/01/02 06:09:09;;;;;;;3.03;0.90;;;;;;;5.76;63.54;99508.34;4995991;28;96665;-53
2024/01/02 06:11:35;;;;;;;4.97;0.93;;;;;;;5.78;63.82;99505.81;4991338;28;97373;-53
2024/01/02 06:14:01;;;;;;;7.40;1.23;;;;;;;5.78;63.73;99489.34;4994839;28;97072;-53
2024/01/02 06:16:27;;;;;;;2.07;0.80;;;;;;;5.75;63.82;99487.63;4992148;28;97199;-53
2024/01/02 06:18:52;;;;;;;5.13;1.20;;;;;;;5.77;63.81;99482.38;4999366;28;97813;-54
2024/01/02 06:21:18;;;;;;;2.60;1.03;;;;;;;5.77;63.90;99487.84;4994527;28;97012;-52
2024/01/02 06:23:43;;;;;;;2.33;1.10;;;;;;;5.77;63.97;99485.13;4995478;28;96739;-53
2024/01/02 06:26:08;;;;;;;2.40;0.70;;;;;;;5.77;64.00;99474.13;4996863;28;97120;-52
2024/01/02 06:28:34;;;;;;;3.13;1.13;;;;;;;5.79;64.08;99463.41;4992906;28;98425;-52
2024/01/02 06:31:05;;;;;;;1.00;0.90;;;;;;;5.83;64.18;99456.38;4996712;28;96773;-53
2024/01/02 06:33:30;;;;;;;2.40;0.80;;;;;;;5.84;63.98;99448.88;4995903;28;97063;-53
2024/01/02 06:35:55;;;;;;;2.20;1.27;;;;;;;5.79;64.13;99441.44;4995910;28;97117;-53
2024/01/02 06:38:21;;;;;;;9.27;1.63;;;;;;;5.77;64.25;99433.72;4995402;28;99333;-53
2024/01/02 06:40:46;;;;;;;2.60;0.70;;;;;;;5.75;64.41;99430.75;4997303;28;97264;-52
2024/01/02 06:43:11;;;;;;;6.93;0.87;;;;;;;5.74;64.48;99423.03;4999264;28;96940;-53
2024/01/02 06:45:37;;;;;;;7.20;1.03;;;;;;;5.75;64.47;99419.78;4993654;28;100378;-52
2024/01/02 06:48:03;;;;;;;1.53;0.90;;;;;;;5.76;64.40;99409.56;5000251;28;99454;-53
2024/01/02 06:50:28;;;;;;;1.60;0.80;;;;;;;5.74;64.41;99398.34;4993629;28;97165;-53
2024/01/02 06:52:53;;;;;;;6.70;1.10;;;;;;;5.76;64.44;99387.59;4997810;28;96851;-53
2024/01/02 06:55:19;;;;;;;2.73;1.47;;;;;;;5.74;64.51;99395.59;4994000;28;97274;-53
2024/01/02 06:57:44;;;;;;;5.93;0.80;;;;;;;5.73;64.58;99405.06;4995163;28;97410;-53
2024/01/02 07:00:10;;;;;;;3.20;0.90;;;;;;;5.75;64.60;99388.84;4993241;28;97213;-53
2024/01/02 07:02:36;;;;;;;2.83;1.13;;;;;;;5.75;64.66;99388.84;4993705;28;97282;-53
2024/01/02 07:05:01;;;;;;;4.00;0.87;;;;;;;5.73;64.65;99377.63;4995725;28;97154;-53
2024/01/02 07:07:27;;;;;;;2.70;1.20;;;;;;;5.74;64.58;99377.13;4995847;28;97169;-53
2024/01/02 07:09:52;;;;;;;1.53;0.90;;;;;;;5.73;64.62;99383.13;4999977;28;96921;-53
2024/01/02 07:12:17;;;;;;;4.30;1.10;;;;;;;5.75;64.70;99380.63;4995178;28;97289;-53
2024/01/02 07:14:43;;;;;;;0.97;0.70;;;;;;;5.75;64.67;99378.63;4995333;28;98977;-53
2024/01/02 07:17:09;;;;;;;1.17;0.80;;;;;;;5.74;64.86;99377.13;4999810;28;99068;-52
2024/01/02 07:19:34;;;;;;;1.27;0.77;;;;;;;5.71;64.66;99380.16;5000085;28;97375;-53
2024/01/02 07:22:00;;;;;;;1.73;0.70;;;;;;;5.72;65.15;99365.19;4992444;28;96906;-53
2024/01/02 07:24:25;;;;;;;2.40;0.80;;;;;;;5.76;64.84;99371.84;4994026;28;99674;-53
2024/01/02 07:26:50;;;;;;;1.47;0.50;;;;;;;5.78;64.81;99376.84;4999920;28;98331;-53
2024/01/02 07:29:16;;;;;;;2.90;0.70;;;;;;;5.79;64.86;99365.34;4994585;28;97522;-53
2024/01/02 07:31:42;;;;;;;1.53;0.67;;;;;;;5.80;64.76;99344.16;4995043;28;97360;-53
2024/01/02 07:34:07;;;;;;;0.93;0.63;;;;;;;5.78;64.73;99343.94;4995242;28;97594;-53
2024/01/02 07:36:33;;;;;;;2.40;1.00;;;;;;;5.77;64.82;99342.44;4994923;28;96684;-53
2024/01/02 07:38:58;;;;;;;4.17;0.70;;;;;;;5.76;64.85;99344.41;4998233;28;97263;-53
2024/01/02 07:41:23;;;;;;;1.03;0.60;;;;;;;5.77;64.95;99325.97;4996787;28;96868;-52
2024/01/02 07:43:49;;;;;;;1.77;0.70;;;;;;;5.75;64.92;99333.97;4997439;28;98213;-53
2024/01/02 07:46:16;;;;;;;1.17;0.50;;;;;;;5.74;64.92;99324.97;4996087;28;96885;-53
2024/01/02 07:48:41;;;;;;;0.80;0.70;;;;;;;5.74;64.97;99321.53;5000353;28;96905;-53
2024/01/02 07:51:07;;;;;;;2.30;1.17;;;;;;;5.77;64.93;99320.47;4997860;28;97513;-53
2024/01/02 07:53:32;;;;;;;1.10;0.60;;;;;;;5.80;64.89;99316.72;4996566;28;97154;-53
2024/01/02 07:55:58;;;;;;;0.97;0.70;;;;;;;5.80;64.83;99313.97;4995962;28;99245;-53
2024/01/02 07:58:23;;;;;;;1.43;0.50;;;;;;;5.79;64.88;99307.72;4997086;28;96689;-52
2024/01/02 08:00:48;;;;;;;0.50;0.40;;;;;;;5.81;64.87;99302.47;4998229;28;97337;-52
2024/01/02 08:03:14;;;;;;;0.83;0.40;;;;;;;5.80;64.91;99289.25;4997148;28;97231;-53
2024/01/02 08:05:40;;;;;;;0.60;0.40;;;;;;;5.79;64.72;99279.53;4996815;28;96730;-53
2024/01/02 08:08:06;;;;;;;1.37;0.40;;;;;;;5.79;64.96;99271.31;4994413;28;96694;-52
2024/01/02 08:10:32;;;;;;;1.43;0.53;;;;;;;5.79;64.99;99274.03;5001210;28;97442;-53
2024/01/02 08:12:58;;;;;;;1.73;0.60;;;;;;;5.75;65.02;99260.63;4996655;28;97341;-53
2024/01/02 08:15:24;;;;;;;1.73;0.60;;;;;;;5.73;65.07;99257.66;4998158;28;97147;-52
2024/01/02 08:17:50;;;;;;;0.80;0.40;;;;;;;5.75;65.16;99265.38;4999187;28;96890;-53
2024/01/02 08:20:15;;;;;;;1.17;0.53;;;;;;;5.77;65.25;99252.63;4996103;28;97196;-53
2024/01/02 08:22:41;;;;;;;1.63;0.50;;;;;;;5.76;65.17;99255.88;4995801;28;97343;-53
2024/01/02 08:25:08;;;;;;;0.50;0.40;;;;;;;5.78;64.97;99251.38;4996845;28;97304;-53
2024/01/02 08:27:33;;;;;;;0.60;0.47;;;;;;;5.74;65.13;99241.94;4998312;28;96622;-53
2024/01/02 08:29:59;;;;;;;0.60;0.50;;;;;;;5.74;65.13;99239.94;4995315;28;96781;-53
2024/01/02 08:32:25;;;;;;;0.87;0.40;;;;;;;5.73;65.24;99237.72;4997386;28;100352;-53
2024/01/02 08:34:50;;;;;;;0.60;0.50;;;;;;;5.74;65.35;99244.69;4993523;28;97113;-52
2024/01/02 08:37:15;;;;;;;0.60;0.50;;;;;;;5.72;65.33;99234.22;5001778;28;97085;-53
2024/01/02 08:39:41;;;;;;;0.70;0.70;;;;;;;5.70;65.27;99231.25;4997947;28;97172;-53
2024/01/02 08:42:06;;;;;;;2.27;0.37;;;;;;;5.73;65.23;99224.75;5000545;28;99434;-53
2024/01/02 08:44:33;;;;;;;0.80;0.47;;;;;;;5.71;65.32;99227.25;4993486;28;104181;-53
2024/01/02 08:46:58;;;;;;;1.00;0.43;;;;;;;5.71;65.17;99226.50;4991841;28;97014;-53
2024/01/02 08:49:23;;;;;;;3.53;0.60;;;;;;;5.67;65.18;99204.13;4996753;28;96894;-53
2024/01/02 08:51:49;;;;;;;0.80;0.40;;;;;;;5.67;65.38;99196.63;4998125;28;98579;-52
2024/01/02 08:54:14;;;;;;;0.57;0.57;;;;;;;5.69;65.28;99194.13;5001205;28;99802;-53
2024/01/02 08:56:39;;;;;;;0.57;0.50;;;;;;;5.69;65.28;99193.38;4997949;28;98050;-53
2024/01/02 08:59:05;;;;;;;0.50;0.40;;;;;;;5.69;65.38;99193.38;4997733;28;97030;-53
2024/01/02 09:01:30;;;;;;;0.70;0.30;;;;;;;5.69;65.26;99191.38;4997426;28;98458;-53
2024/01/02 09:03:55;;;;;;;0.50;0.40;;;;;;;5.68;65.30;99211.81;4991993;28;97204;-53
2024/01/02 09:06:21;;;;;;;0.80;0.40;;;;;;;5.67;65.29;99184.91;5000303;28;96947;-53
2024/01/02 09:08:46;;;;;;;0.50;0.30;;;;;;;5.68;65.19;99178.16;4996425;28;97354;-53
2024/01/02 09:11:13;;;;;;;0.83;0.30;;;;;;;5.69;65.34;99177.66;4995775;28;99638;-53
2024/01/02 09:13:38;;;;;;;0.50;0.30;;;;;;;5.71;65.27;99166.16;4996143;28;98360;-53
2024/01/02 09:16:04;;;;;;;0.50;0.30;;;;;;;5.68;65.31;99159.69;4993727;28;96900;-53
2024/01/02 09:18:30;;;;;;;0.50;0.40;;;;;;;5.67;65.34;99171.19;4996019;28;96855;-53
2024/01/02 09:20:55;;;;;;;0.50;0.30;;;;;;;5.68;65.26;99167.19;4993571;28;98998;-53
2024/01/02 09:23:20;;;;;;;0.60;0.40;;;;;;;5.69;65.27;99163.19;4993636;28;98488;-54
2024/01/02 09:25:47;;;;;;;0.97;0.30;;;;;;;5.70;65.14;99167.41;4993702;28;97263;-52
2024/01/02 09:28:16;;;;;;;1.13;0.30;;;;;;;5.69;65.10;99163.19;4993841;28;96959;-53
2024/01/02 09:30:43;;;;;;;1.20;0.37;;;;;;;5.67;65.15;99152.00;4996221;28;97204;-53
2024/01/02 09:33:09;;;;;;;0.50;0.30;;;;;;;5.69;65.17;99160.44;4993195;28;96687;-52
2024/01/02 09:35:34;;;;;;;0.50;0.40;;;;;;;5.69;65.23;99160.44;4993894;28;96946;-53
2024/01/02 09:38:00;;;;;;;0.40;0.30;;;;;;;5.68;65.17;99156.19;4995669;28;96723;-53
2024/01/02 09:40:57;;;;;;;0.40;0.30;;;;;;;5.67;65.59;99160.97;4995469;28;97806;-53
2024/01/02 09:43:39;;;;;;;0.50;0.40;;;;;;;5.65;65.59;99157.25;4996860;28;97442;-52
2024/01/02 09:46:13;;;;;;;0.40;0.30;;;;;;;5.61;65.26;99159.56;4994427;28;97040;-53
2024/01/02 09:48:49;;;;;;;0.50;0.30;;;;;;;5.62;66.01;99156.28;4997625;28;96728;-54
2024/01/02 09:51:52;;;;;;;0.67;0.67;;;;;;;5.60;66.01;99138.84;4994364;28;97256;-53
2024/01/02 09:54:27;;;;;;;0.40;0.30;;;;;;;5.53;65.58;99138.19;4993005;28;96682;-53
2024/01/02 09:57:06;;;;;;;0.50;0.40;;;;;;;5.53;65.86;99142.94;4994609;28;97095;-53
2024/01/02 09:59:38;;;;;;;0.90;0.30;;;;;;;5.52;65.79;99125.72;4995984;28;96998;-53
2024/01/02 10:02:22;;;;;;;0.80;0.30;;;;;;;5.56;65.82;99119.97;4993766;28;97599;-53
2024/01/02 10:05:11;;;;;;;0.40;0.30;;;;;;;5.51;65.89;99120.75;4997734;28;97439;-53
2024/01/02 10:08:09;;;;;;;0.60;0.40;;;;;;;5.47;65.95;99162.22;5000540;28;97618;-51
2024/01/02 10:10:41;;;;;;;0.70;0.50;;;;;;;5.49;65.94;99145.97;4993547;28;97201;-54
2024/01/02 10:13:38;;;;;;;1.27;0.30;;;;;;;5.47;66.53;99081.94;4988177;28;97724;-54
2024/01/02 10:16:16;;;;;;;1.00;0.40;;;;;;;5.44;65.96;99100.16;4993720;28;97223;-53
2024/01/02 10:19:02;;;;;;;0.43;0.30;;;;;;;5.53;66.40;99102.53;4997503;28;97446;-53
2024/01/02 10:21:45;;;;;;;0.43;0.30;;;;;;;5.60;66.23;99105.94;4998280;28;97007;-53
2024/01/02 10:24:29;;;;;;;0.50;0.30;;;;;;;5.64;66.11;99120.09;4991328;28;98283;-53
2024/01/02 10:27:14;;;;;;;0.50;0.33;;;;;;;5.63;66.23;99105.63;4995512;28;99643;-53
2024/01/02 10:29:57;;;;;;;0.50;0.30;;;;;;;5.70;66.08;99085.09;4993618;28;97065;-53
2024/01/02 10:33:06;;;;;;;0.50;0.40;;;;;;;5.73;66.16;99081.31;4995983;28;96743;-53
2024/01/02 10:35:43;;;;;;;0.53;0.47;;;;;;;5.74;65.75;99069.09;4989090;28;100506;-52
2024/01/02 10:38:34;;;;;;;0.50;0.40;;;;;;;5.78;66.13;99086.00;4995489;28;97466;-53
2024/01/02 10:41:08;;;;;;;0.43;0.30;;;;;;;5.78;65.72;99075.00;4997615;28;97026;-53
2024/01/02 10:43:47;;;;;;;0.50;0.30;;;;;;;5.81;66.06;99079.44;4997573;28;96699;-53
2024/01/02 10:46:25;;;;;;;0.50;0.30;;;;;;;5.79;65.94;99063.50;4994289;28;99540;-53
2024/01/02 10:49:08;;;;;;;0.57;0.30;;;;;;;5.80;66.21;99067.00;4997795;28;96994;-55
2024/01/02 10:51:39;;;;;;;0.50;0.40;;;;;;;5.87;66.09;99066.41;4997482;28;97035;-53
2024/01/02 10:54:08;;;;;;;0.50;0.30;;;;;;;5.93;65.84;99076.03;4994373;28;96695;-53
2024/01/02 10:56:56;;;;;;;0.53;0.47;;;;;;;5.97;66.21;99070.97;4994457;28;97503;-53
2024/01/02 11:00:10;;;;;;;0.67;0.40;;;;;;;5.98;66.14;99060.75;4992580;28;98752;-52
2024/01/02 11:02:54;;;;;;;0.50;0.40;;;;;;;6.06;65.90;99072.59;4997304;28;97210;-54
2024/01/02 11:05:58;;;;;;;0.50;0.40;;;;;;;6.15;66.20;99063.97;4997467;28;96960;-54
2024/01/02 11:08:45;;;;;;;1.20;1.10;;;;;;;6.22;66.10;99058.56;4981016;28;100189;-53
2024/01/02 11:11:11;;;;;;;1.00;1.00;;;;;;;6.28;65.69;99053.00;4992230;28;97872;-53
2024/01/02 11:13:41;;;;;;;0.70;0.70;;;;;;;6.35;65.63;99051.66;4996100;28;97110;-53
2024/01/02 11:16:13;;;;;;;0.70;0.70;;;;;;;6.40;65.48;99054.28;4995102;28;97414;-53
2024/01/02 11:18:40;;;;;;;0.60;0.50;;;;;;;6.46;65.42;99063.16;4996927;28;97063;-54
2024/01/02 11:21:16;;;;;;;0.60;0.53;;;;;;;6.52;65.63;99055.59;4994440;28;97344;-54
2024/01/02 11:23:46;;;;;;;0.60;0.50;;;;;;;6.61;65.65;99057.91;4993296;28;97613;-53
2024/01/02 11:26:44;;;;;;;1.17;0.50;;;;;;;6.67;65.62;99061.31;4995268;28;96626;-54
2024/01/02 11:29:20;;;;;;;0.60;0.57;;;;;;;6.70;65.50;99049.25;5010399;28;98522;-56
2024/01/02 11:31:48;;;;;;;0.50;0.40;;;;;;;6.71;65.26;99056.25;4991701;28;97222;-55
2024/01/02 11:34:36;;;;;;;0.77;0.50;;;;;;;6.76;65.41;99060.91;4990320;28;97005;-55
2024/01/02 11:37:23;;;;;;;0.50;0.50;;;;;;;6.81;65.59;99059.31;4994481;28;97506;-56
2024/01/02 11:40:13;;;;;;;0.50;0.40;;;;;;;6.87;65.31;99057.22;5001517;28;99295;-55
2024/01/02 11:42:56;;;;;;;0.97;0.80;;;;;;;6.88;65.35;99051.16;5000130;28;97755;-55